Latest Weather Observations for Coonamble

IDN60801

Issued at 8:32 pm EST Monday 31 August 2015 (issued every 30 minutes, with the page automatically refreshed every 10 minutes)

About weather observations | Map of weather stations | Latest weather observations for NSW | Other Formats
Station Details ID: 051161 Name: COONAMBLE AIRPORT AWS Lat: -30.98 Lon: 148.38 Height: 181.3 m
Data from the previous 72 hours. | See also: Recent months at Coonamble
Date/Time
EST
Temp
°C
App
Temp
°C
Dew
Point
Rel
Hum
%
Delta-T
°C
Wind Press
QNH
hPa
Press
MSL
hPa
Rain
since 9 am
mm
Dir
 
Spd
km/h
Gust
km/h
Spd
kts
Gust
kts
31/08:30pm 6.8 4.8 6.4 97 0.2 SSW 6 7 3 4 1018.6 1018.7 0.0
31/08:00pm 5.9 3.6 5.5 97 0.2 SW 7 7 4 4 1018.6 1018.7 0.0
31/07:30pm 6.7 4.4 5.5 92 0.5 SW 7 7 4 4 1018.4 1018.5 0.0
31/07:00pm 8.0 5.1 4.6 79 1.5 SSW 9 11 5 6 1018.0 1018.0 0.0
31/06:30pm 9.6 6.9 5.4 75 1.9 SSW 9 11 5 6 1017.7 1017.7 0.0
31/06:00pm 10.7 7.5 5.0 68 2.6 SSW 11 13 6 7 1017.5 1017.5 0.0
31/05:30pm 12.9 8.9 5.1 59 3.6 SSW 15 20 8 11 1017.2 1017.3 0.0
31/05:00pm 14.5 10.1 5.0 53 4.5 SSW 17 20 9 11 1016.9 1017.0 0.0
31/04:30pm 15.1 10.3 4.8 50 4.9 SSW 19 32 10 17 1016.9 1017.0 0.0
31/04:00pm 15.0 9.9 4.1 48 5.1 SSW 20 32 11 17 1016.8 1016.9 0.0
31/03:30pm 14.8 9.0 4.2 49 4.9 SSW 24 32 13 17 1016.9 1017.0 0.0
31/03:00pm 16.4 10.7 4.8 46 5.5 SW 24 32 13 17 1016.9 1017.0 0.0
31/02:30pm 16.5 11.6 5.2 47 5.4 SW 20 30 11 16 1017.0 1017.1 0.0
31/02:00pm 16.6 11.7 4.9 46 5.6 SW 20 30 11 16 1017.4 1017.4 0.0
31/01:30pm 15.9 11.1 5.8 51 4.9 SW 20 32 11 17 1017.6 1017.6 0.0
31/01:00pm 15.3 9.8 4.1 47 5.2 SW 22 32 12 17 1017.9 1017.9 0.0
31/12:30pm 15.6 11.1 6.3 54 4.6 SSW 19 32 10 17 1018.2 1018.3 0.0
31/12:00pm 15.2 10.8 7.2 59 4.0 SSW 20 28 11 15 1018.4 1018.5 0.0
31/11:30am 14.6 10.4 8.1 65 3.3 SW 20 33 11 18 1018.8 1018.9 0.0
31/11:00am 13.4 9.0 7.6 68 2.9 S 20 28 11 15 1019.2 1019.3 0.0
31/10:30am 12.8 7.9 8.3 74 2.3 SSW 24 32 13 17 1019.6 1019.7 0.0
31/10:00am 11.7 6.8 8.4 80 1.6 SSW 24 32 13 17 1019.7 1019.8 0.0
31/09:30am 10.2 6.4 9.7 97 0.3 SSW 20 32 11 17 1019.9 1020.0 0.0
31/09:00am 8.9 5.0 8.6 98 0.1 SSW 19 22 10 12 1019.9 1020.0 0.0
31/08:30am 8.0 4.3 7.9 99 0.0 SSW 17 22 9 12 1019.7 1019.8 0.0
31/08:00am 6.5 2.1 6.5 100 0.0 SSW 19 24 10 13 1019.3 1019.4 0.0
31/07:30am 4.9 0.5 4.9 100 0.0 SW 17 20 9 11 1019.4 1019.5 0.0
31/07:00am 3.2 -1.1 3.2 100 0.0 SSW 15 17 8 9 1018.9 1019.0 0.0
31/06:30am 0.7 -2.9 0.7 100 0.0 SSW 9 11 5 6 1018.8 1018.9 0.0
31/06:00am 1.2 -1.9 1.2 100 0.0 SW 7 7 4 4 1018.7 1018.8 0.0
31/05:30am 1.2 -1.7 1.2 100 0.0 WSW 6 7 3 4 1018.6 1018.7 0.0
31/05:00am 1.6 -1.8 1.6 100 0.0 SW 9 9 5 5 1018.5 1018.6 0.0
31/04:30am 1.8 -1.6 1.8 100 0.0 SW 9 11 5 6 1018.4 1018.5 0.0
31/04:00am 2.3 -1.0 2.3 100 0.0 WSW 9 13 5 7 1018.5 1018.6 0.0
31/03:30am 2.1 -1.3 2.1 100 0.0 SW 9 11 5 6 1018.8 1018.9 0.0
31/03:00am 2.0 -1.4 1.9 99 0.0 WSW 9 9 5 5 1019.0 1019.1 0.0
31/02:30am 1.7 -1.4 1.6 99 0.0 WSW 7 9 4 5 1019.3 1019.4 0.0
31/02:00am 2.4 -1.3 2.3 99 0.0 SW 11 11 6 6 1019.5 1019.6 0.0
31/01:30am 2.2 -1.2 2.1 99 0.0 SW 9 9 5 5 1019.7 1019.8 0.0
31/01:00am 2.9 0.0 2.6 98 0.1 SW 7 9 4 5 1019.9 1020.0 0.0
31/12:30am 4.2 1.2 4.1 99 0.0 S 9 11 5 6 1019.9 1020.0 0.0
31/12:00am 4.8 2.3 4.5 98 0.1 S 7 9 4 5 1020.1 1020.2 0.0
 
Date/Time
EST
Temp
°C
App
Temp
°C
Dew
Point
Rel
Hum
%
Delta-T
°C
Wind Press
QNH
hPa
Press
MSL
hPa
Rain
since 9 am
mm
Dir
 
Spd
km/h
Gust
km/h
Spd
kts
Gust
kts
30/11:30pm 5.7 3.0 5.4 98 0.1 S 9 11 5 6 1020.3 1020.4 0.0
30/11:00pm 6.2 2.8 5.9 98 0.1 S 13 15 7 8 1020.3 1020.4 0.0
30/10:30pm 6.8 3.5 6.4 97 0.2 S 13 17 7 9 1020.5 1020.6 0.0
30/10:00pm 7.0 3.4 6.6 97 0.2 S 15 17 8 9 1020.6 1020.7 0.0
30/09:30pm 7.4 4.2 7.0 97 0.2 SSW 13 17 7 9 1020.7 1020.8 0.0
30/09:00pm 6.6 3.3 6.2 97 0.2 SW 13 15 7 8 1020.5 1020.6 0.0
30/08:30pm 7.3 4.0 6.4 94 0.4 WSW 13 15 7 8 1020.3 1020.4 0.0
30/08:00pm 6.2 3.9 5.5 95 0.3 WSW 7 9 4 5 1020.0 1020.1 0.0
30/07:30pm 6.8 4.7 5.9 94 0.4 WSW 6 7 3 4 1019.8 1019.9 0.0
30/07:00pm 8.1 5.7 5.4 83 1.2 SW 7 9 4 5 1019.6 1019.7 0.0
30/06:30pm 9.1 5.9 5.1 76 1.8 SSW 11 13 6 7 1019.3 1019.4 0.0
30/06:00pm 10.0 6.7 4.8 70 2.4 SSW 11 15 6 8 1019.1 1019.2 0.0
30/05:30pm 12.7 8.7 5.1 60 3.5 SSW 15 20 8 11 1018.9 1019.0 0.0
30/05:00pm 14.1 8.7 4.7 53 4.4 SSW 22 28 12 15 1018.6 1018.7 0.0
30/04:30pm 14.9 9.9 4.6 50 4.8 SSW 20 26 11 14 1018.5 1018.6 0.0
30/04:00pm 15.0 9.7 3.2 45 5.4 SW 20 30 11 16 1018.6 1018.7 0.0
30/03:30pm 15.2 10.1 4.0 47 5.2 SW 20 28 11 15 1018.7 1018.8 0.0
30/03:00pm 15.5 10.5 4.5 48 5.2 SW 20 30 11 16 1019.0 1019.1 0.0
30/02:30pm 15.3 10.3 3.5 45 5.4 SW 19 28 10 15 1019.1 1019.2 0.0
30/02:00pm 15.2 10.0 2.7 43 5.6 SW 19 32 10 17 1019.3 1019.4 0.0
30/01:30pm 15.1 10.3 2.6 43 5.6 SW 17 30 9 16 1019.6 1019.7 0.0
30/01:00pm 14.2 9.1 2.8 46 5.1 SW 19 26 10 14 1019.9 1020.0 0.0
30/12:30pm 14.5 9.4 3.0 46 5.2 SSW 19 26 10 14 1020.3 1020.4 0.0
30/12:00pm 13.6 8.1 1.9 45 5.1 SW 20 30 11 16 1020.9 1021.0 0.0
30/11:30am 13.3 8.3 3.4 51 4.5 SW 19 26 10 14 1021.3 1021.4 0.0
30/11:00am 12.4 7.5 3.9 56 3.8 SSW 19 26 10 14 1021.9 1022.0 0.0
30/10:30am 11.8 6.6 3.8 58 3.6 S 20 26 11 14 1022.1 1022.2 0.0
30/10:00am 11.2 6.2 4.7 64 3.0 SSW 20 28 11 15 1022.1 1022.2 0.0
30/09:30am 10.3 5.3 4.7 68 2.5 SSW 20 26 11 14 1022.2 1022.3 0.0
30/09:00am 9.3 5.5 6.0 80 1.5 S 15 22 8 12 1022.2 1022.3 0.0
30/08:30am 7.9 4.3 6.7 92 0.6 SSW 15 20 8 11 1022.1 1022.2 0.0
30/08:00am 6.2 2.4 5.8 97 0.2 SSW 15 19 8 10 1021.9 1022.0 0.0
30/07:30am 4.5 1.5 4.2 98 0.1 SSW 9 13 5 7 1021.7 1021.8 0.0
30/07:00am 2.1 -1.3 2.0 99 0.0 SSW 9 11 5 6 1021.5 1021.6 0.0
30/06:30am 1.2 -2.7 0.9 98 0.1 SW 11 13 6 7 1021.3 1021.4 0.0
30/06:00am 1.6 -2.7 1.3 98 0.1 SW 13 13 7 7 1021.0 1021.1 0.0
30/05:30am 2.5 -0.8 2.2 98 0.1 SW 9 11 5 6 1020.9 1021.0 0.0
30/05:00am 3.1 -0.9 2.7 97 0.2 SSW 13 15 7 8 1020.9 1021.0 0.0
30/04:30am 4.7 0.6 4.3 97 0.2 S 15 19 8 10 1020.8 1020.9 0.0
30/04:00am 4.8 0.3 4.4 97 0.2 S 17 22 9 12 1020.7 1020.8 0.0
30/03:30am 5.8 1.5 5.4 97 0.2 S 17 24 9 13 1020.9 1021.0 0.0
30/03:00am 5.6 2.0 5.2 97 0.2 SSW 13 19 7 10 1021.2 1021.3 0.0
30/02:30am 6.0 1.8 5.6 97 0.2 SSW 17 22 9 12 1021.6 1021.7 0.0
30/02:00am 6.0 2.2 5.6 97 0.2 SSW 15 19 8 10 1021.8 1021.9 0.0
30/01:30am 6.2 2.4 5.8 97 0.2 SSW 15 17 8 9 1022.2 1022.3 0.0
30/01:00am 7.1 3.5 6.7 97 0.2 SSW 15 19 8 10 1022.4 1022.5 0.0
30/12:30am 8.4 4.0 6.5 88 0.9 SSW 19 26 10 14 1022.6 1022.7 0.0
30/12:00am 8.6 4.8 7.4 92 0.6 SSW 17 19 9 10 1022.5 1022.6 0.0
 
Date/Time
EST
Temp
°C
App
Temp
°C
Dew
Point
Rel
Hum
%
Delta-T
°C
Wind Press
QNH
hPa
Press
MSL
hPa
Rain
since 9 am
mm
Dir
 
Spd
km/h
Gust
km/h
Spd
kts
Gust
kts
29/11:30pm 8.9 5.1 7.4 90 0.7 SSW 17 20 9 11 1022.6 1022.7 0.0
29/11:00pm 8.4 5.2 7.0 91 0.7 SSW 13 17 7 9 1022.6 1022.7 0.0
29/10:30pm 8.9 6.2 7.5 91 0.7 SSW 11 13 6 7 1022.7 1022.8 0.0
29/10:00pm 9.0 6.7 7.6 91 0.7 SSW 9 11 5 6 1022.8 1023.0 0.0
29/09:30pm 9.6 7.0 7.7 88 0.9 SSW 11 11 6 6 1023.0 1023.2 0.0
29/09:00pm 9.1 6.7 6.9 86 1.0 SSW 9 15 5 8 1023.0 1023.2 0.0
29/08:30pm 9.2 6.3 6.3 82 1.4 SSW 11 13 6 7 1022.9 1023.1 0.0
29/08:00pm 9.8 7.0 7.1 83 1.3 SSW 11 13 6 7 1022.9 1023.1 0.0
29/07:30pm 9.9 6.8 7.2 83 1.3 S 13 17 7 9 1022.8 1023.0 0.0
29/07:00pm 10.2 7.6 6.2 76 1.9 SSW 9 13 5 7 1022.6 1022.7 0.0
29/06:30pm 11.9 9.0 6.4 69 2.6 SSW 11 15 6 8 1022.3 1022.4 0.0
29/06:00pm 12.9 9.1 6.0 63 3.3 SSW 15 19 8 10 1022.1 1022.2 0.0
29/05:30pm 13.4 9.2 5.6 59 3.7 SSW 17 22 9 12 1021.8 1021.9 0.0
29/05:00pm 14.0 9.4 5.4 56 4.1 SSW 19 24 10 13 1021.4 1021.5 0.0
29/04:30pm 14.4 10.2 5.5 55 4.2 SSW 17 22 9 12 1021.4 1021.5 0.0
29/04:00pm 14.7 9.9 5.8 55 4.3 S 20 28 11 15 1021.5 1021.6 0.0
29/03:30pm 15.0 10.1 5.2 52 4.7 SSW 20 26 11 14 1021.5 1021.6 0.0
29/03:00pm 15.2 10.5 6.2 55 4.4 SW 20 26 11 14 1021.7 1021.8 0.0
29/02:30pm 16.0 11.2 5.6 50 5.0 SSW 20 32 11 17 1021.7 1021.8 0.0
29/02:00pm 15.5 10.8 6.0 53 4.6 SW 20 30 11 16 1022.1 1022.2 0.0
29/01:30pm 15.5 10.1 6.2 54 4.5 SSW 24 32 13 17 1022.4 1022.5 0.0
29/01:00pm 15.1 10.6 5.9 54 4.4 SSW 19 22 10 12 1022.8 1023.0 0.0
29/12:30pm 15.6 11.4 5.8 52 4.7 SW 17 26 9 14 1023.4 1023.5 0.0
29/12:00pm 15.8 12.5 6.3 53 4.6 SW 13 19 7 10 1024.0 1024.1 0.0
29/11:30am 15.1 11.9 6.9 58 4.1 SW 13 30 7 16 1024.5 1024.6 0.0
29/11:00am 14.7 11.8 8.0 64 3.4 SW 13 26 7 14 1024.9 1025.0 0.0
29/10:30am 14.2 12.1 8.4 68 2.9 SW 9 17 5 9 1025.1 1025.2 0.0
29/10:00am 13.4 11.0 8.7 73 2.4 SW 11 15 6 8 1025.2 1025.3 0.0
29/09:30am 12.2 10.7 9.2 82 1.5 SW 7 9 4 5 1025.4 1025.5 0.0
29/09:00am 10.4 10.4 9.9 97 0.3 CALM 0 0 0 0 1025.4 1025.5 0.0
29/08:30am 9.3 8.7 9.0 98 0.1 NE 2 6 1 3 1025.3 1025.4 0.0
29/08:00am 7.0 6.3 7.0 100 0.0 CALM 0 4 0 2 1025.1 1025.2 0.0
29/07:30am 5.1 4.0 5.1 100 0.0 CALM 0 0 0 0 1024.8 1024.9 0.0
29/07:00am 2.0 0.3 2.0 100 0.0 CALM 0 2 0 1 1024.4 1024.5 0.0
29/06:30am 1.5 -1.6 1.4 99 0.0 ENE 7 9 4 5 1024.3 1024.4 0.0
29/06:00am 2.5 0.9 2.4 99 0.0 CALM 0 0 0 0 1024.1 1024.2 0.0
29/05:30am 4.2 2.9 4.2 100 0.0 CALM 0 4 0 2 1023.8 1023.9 0.0
29/05:00am 4.5 1.6 4.5 100 0.0 SSE 9 11 5 6 1023.6 1023.7 0.0
29/04:30am 4.9 1.7 4.9 100 0.0 SSE 11 13 6 7 1023.5 1023.6 0.0
29/04:00am 5.1 1.9 5.1 100 0.0 SE 11 13 6 7 1023.5 1023.6 0.0
29/03:30am 3.3 -0.3 3.2 99 0.0 SSE 11 13 6 7 1023.3 1023.4 0.0
29/03:00am 3.6 1.1 3.5 99 0.0 SSW 6 6 3 3 1023.7 1023.8 0.0
29/02:30am 3.9 2.5 3.8 99 0.0 CALM 0 0 0 0 1024.0 1024.1 0.0
29/02:00am 5.6 4.2 5.5 99 0.0 SSE 2 6 1 3 1023.9 1024.0 0.0
29/01:30am 5.9 2.9 5.8 99 0.0 SE 11 11 6 6 1024.1 1024.2 0.0
29/01:00am 6.1 3.4 5.8 98 0.1 SE 9 11 5 6 1024.2 1024.3 0.0
29/12:30am 7.4 4.7 7.3 99 0.0 SE 11 13 6 7 1024.3 1024.4 0.0
29/12:00am 7.3 4.5 7.0 98 0.1 SSE 11 13 6 7 1024.3 1024.4 0.0
 
Date/Time
EST
Temp
°C
App
Temp
°C
Dew
Point
Rel
Hum
%
Delta-T
°C
Wind Press
QNH
hPa
Press
MSL
hPa
Rain
since 9 am
mm
Dir
 
Spd
km/h
Gust
km/h
Spd
kts
Gust
kts
28/11:30pm 7.9 5.3 7.6 98 0.1 SE 11 13 6 7 1024.5 1024.6 0.0
28/11:00pm 8.8 6.0 8.5 98 0.1 SSE 13 15 7 8 1024.4 1024.5 0.0
28/10:30pm 9.9 7.3 9.4 97 0.3 SSE 13 15 7 8 1024.5 1024.6 0.0
28/10:00pm 10.0 8.2 9.5 97 0.3 SSE 9 13 5 7 1024.8 1024.9 0.0
28/09:30pm 9.9 7.3 9.4 97 0.3 SSE 13 15 7 8 1024.8 1024.9 0.0
28/09:00pm 10.1 8.3 9.6 97 0.3 SSE 9 11 5 6 1024.7 1024.8 0.0

Other Formats:

Comma delimited format used in spreadsheet applications
http://www.bom.gov.au/fwo/IDN60801/IDN60801.95718.axf

JavaScript Object Notation format (JSON) in row-major order
http://www.bom.gov.au/fwo/IDN60801/IDN60801.95718.json